Time;durP1;ratioP1;P1;durP2;ratioP2;P2;SDS_P1;SDS_P2;PMS_P1;PMS_P2;Temp;Humidity;BMP_temperature;BMP_pressure;BME280_temperature;BME280_humidity;BME280_pressure;Samples;Min_cycle;Max_cycle;Signal;HPM_P1;HPM_P2
2023/07/11 00:00:04;;;;;;;9.60;3.10;;;18.40;99.90;;;;;;5088619;28;20045;-77
2023/07/11 00:02:29;;;;;;;;;;;18.40;99.90;;;;;;5091715;28;20036;-78
2023/07/11 00:04:58;;;;;;;7.38;2.42;;;18.40;99.90;;;;;;5094452;28;20288;-77
2023/07/11 00:07:23;;;;;;;6.22;2.42;;;18.50;99.90;;;;;;5092184;28;20093;-78
2023/07/11 00:09:49;;;;;;;5.97;2.20;;;18.40;99.90;;;;;;5092811;28;20478;-78
2023/07/11 00:12:18;;;;;;;9.77;2.60;;;18.40;99.90;;;;;;5090598;28;20067;-77
2023/07/11 00:14:44;;;;;;;5.88;2.03;;;18.40;99.90;;;;;;5090068;28;20062;-77
2023/07/11 00:17:10;;;;;;;6.57;2.25;;;18.40;99.90;;;;;;5080913;28;20822;-77
2023/07/11 00:19:51;;;;;;;7.57;2.58;;;18.40;99.90;;;;;;5092841;28;20090;-77
2023/07/11 00:22:17;;;;;;;4.63;1.95;;;18.40;99.90;;;;;;5090391;28;20127;-77
2023/07/11 00:24:43;;;;;;;7.22;2.88;;;18.40;99.90;;;;;;5091656;28;20040;-78
2023/07/11 00:27:12;;;;;;;6.13;2.20;;;18.40;99.90;;;;;;5073560;28;21700;-77
2023/07/11 00:29:39;;;;;;;9.57;2.55;;;18.40;99.90;;;;;;5077999;28;20525;-77
2023/07/11 00:32:05;;;;;;;6.10;2.22;;;18.40;99.90;;;;;;5083575;28;20485;-77
2023/07/11 00:34:31;;;;;;;9.75;2.83;;;18.40;99.90;;;;;;5090335;28;20084;-77
2023/07/11 00:36:56;;;;;;;5.60;1.98;;;18.40;99.90;;;;;;5075690;28;20095;-77
2023/07/11 00:39:22;;;;;;;5.93;1.98;;;18.40;99.90;;;;;;5092515;28;20044;-77
2023/07/11 00:41:48;;;;;;;6.15;2.17;;;18.40;99.90;;;;;;5084776;28;20045;-77
2023/07/11 00:44:16;;;;;;;11.93;1.90;;;18.40;99.90;;;;;;5089148;28;20040;-78
2023/07/11 00:46:43;;;;;;;6.57;2.00;;;18.40;99.90;;;;;;5084689;28;20115;-77
2023/07/11 00:49:15;;;;;;;4.30;1.60;;;18.40;99.90;;;;;;5093630;28;20486;-77
2023/07/11 00:51:50;;;;;;;3.67;1.58;;;18.40;99.90;;;;;;5089069;28;20044;-77
2023/07/11 00:54:18;;;;;;;7.00;1.70;;;18.40;99.90;;;;;;5083690;28;20446;-76
2023/07/11 00:56:46;;;;;;;4.75;1.83;;;18.40;99.90;;;;;;5105238;28;20040;-77
2023/07/11 00:59:15;;;;;;;7.78;1.77;;;18.40;99.90;;;;;;5081405;28;20046;-77
2023/07/11 01:01:45;;;;;;;6.93;1.77;;;18.30;99.90;;;;;;5075737;28;20044;-77
2023/07/11 01:04:11;;;;;;;5.03;1.95;;;18.50;99.90;;;;;;5081779;28;20044;-77
2023/07/11 01:06:37;;;;;;;5.60;2.17;;;18.30;99.90;;;;;;5092499;28;20040;-77
2023/07/11 01:09:04;;;;;;;6.90;1.85;;;18.30;99.90;;;;;;5076526;28;20482;-78
2023/07/11 01:11:31;;;;;;;7.33;1.90;;;18.30;99.90;;;;;;5080725;28;20051;-77
2023/07/11 01:13:57;;;;;;;5.88;2.20;;;18.20;99.90;;;;;;5079617;28;20047;-77
2023/07/11 01:16:23;;;;;;;6.38;2.20;;;18.20;99.90;;;;;;5072438;28;20064;-77
2023/07/11 01:18:49;;;;;;;5.35;2.05;;;18.20;99.90;;;;;;5088378;28;20196;-77
2023/07/11 01:21:19;;;;;;;6.10;1.92;;;18.10;99.90;;;;;;5090856;28;20040;-77
2023/07/11 01:23:45;;;;;;;5.50;1.95;;;18.10;99.90;;;;;;5093019;28;20048;-78
2023/07/11 01:26:11;;;;;;;5.00;2.10;;;18.10;99.90;;;;;;5101523;28;20131;-78
2023/07/11 01:28:39;;;;;;;7.30;2.47;;;18.10;99.90;;;;;;5083235;28;20032;-77
2023/07/11 01:31:05;;;;;;;6.63;2.38;;;18.10;99.90;;;;;;5084415;28;20044;-77
2023/07/11 01:33:31;;;;;;;5.45;2.60;;;18.10;99.90;;;;;;5074644;28;20069;-77
2023/07/11 01:35:57;;;;;;;8.02;2.55;;;18.10;99.90;;;;;;5089130;28;20047;-77
2023/07/11 01:38:24;;;;;;;8.05;2.42;;;18.20;99.90;;;;;;5092557;28;20135;-77
2023/07/11 01:40:50;;;;;;;8.68;2.30;;;18.20;99.90;;;;;;5081391;28;20048;-76
2023/07/11 01:43:18;;;;;;;7.35;2.60;;;18.20;99.90;;;;;;5090684;28;20489;-77
2023/07/11 01:45:44;;;;;;;5.75;1.95;;;18.20;99.90;;;;;;5068209;28;20044;-77
2023/07/11 01:48:10;;;;;;;4.45;1.80;;;18.30;99.90;;;;;;5072943;28;20123;-77
2023/07/11 01:50:35;;;;;;;5.65;2.20;;;18.30;99.90;;;;;;5092253;28;20124;-77
2023/07/11 01:53:01;;;;;;;7.25;2.17;;;18.30;99.90;;;;;;5095334;28;20043;-77
2023/07/11 01:55:27;;;;;;;6.20;2.08;;;18.30;99.90;;;;;;5093718;28;20616;-77
2023/07/11 01:57:52;;;;;;;8.65;2.42;;;18.30;99.90;;;;;;5084835;28;20142;-77
2023/07/11 02:00:19;;;;;;;6.15;2.38;;;18.30;99.90;;;;;;5086107;28;20038;-76
2023/07/11 02:02:45;;;;;;;10.10;2.88;;;18.30;99.90;;;;;;5109446;28;20043;-77
2023/07/11 02:05:10;;;;;;;7.22;2.58;;;18.30;99.90;;;;;;5092222;28;20570;-76
2023/07/11 02:07:36;;;;;;;8.23;3.13;;;18.20;99.90;;;;;;5072885;28;20428;-76
2023/07/11 02:10:02;;;;;;;5.07;2.50;;;18.20;99.90;;;;;;5091578;28;20561;-76
2023/07/11 02:12:27;;;;;;;7.50;2.75;;;18.20;99.90;;;;;;5083041;28;20486;-76
2023/07/11 02:14:53;;;;;;;11.02;2.45;;;18.20;99.90;;;;;;5092874;28;20078;-77
2023/07/11 02:17:19;;;;;;;10.02;2.88;;;18.10;99.90;;;;;;5104630;27;20089;-77
2023/07/11 02:19:44;;;;;;;11.52;3.40;;;18.10;99.90;;;;;;5115706;28;20118;-77
2023/07/11 02:22:11;;;;;;;8.73;2.80;;;18.10;99.90;;;;;;5088185;28;20478;-77
2023/07/11 02:24:39;;;;;;;8.57;2.88;;;18.10;99.90;;;;;;5097670;28;20763;-76
2023/07/11 02:27:04;;;;;;;;;;;18.10;99.90;;;;;;5099160;28;20044;-77
2023/07/11 02:29:30;;;;;;;9.75;3.25;;;18.00;99.90;;;;;;5101902;28;19919;-76
2023/07/11 02:31:56;;;;;;;8.70;2.90;;;18.00;99.90;;;;;;5087475;28;20045;-77
2023/07/11 02:34:22;;;;;;;10.13;3.15;;;17.90;99.90;;;;;;5103901;28;20047;-76
2023/07/11 02:36:47;;;;;;;10.55;3.05;;;17.90;99.90;;;;;;5097265;28;20127;-76
2023/07/11 02:39:13;;;;;;;8.77;2.92;;;17.90;99.90;;;;;;5092513;28;20491;-76
2023/07/11 02:41:39;;;;;;;8.23;2.67;;;17.90;99.90;;;;;;5089464;28;20043;-76
2023/07/11 02:44:05;;;;;;;8.82;2.83;;;17.80;99.90;;;;;;5084556;28;20127;-77
2023/07/11 02:46:30;;;;;;;10.10;2.58;;;17.80;99.90;;;;;;5084000;28;20047;-77
2023/07/11 02:48:56;;;;;;;7.03;2.67;;;17.80;99.90;;;;;;5081953;28;20089;-77
2023/07/11 02:51:23;;;;;;;8.77;2.80;;;17.80;99.90;;;;;;5085566;28;20075;-77
2023/07/11 02:53:49;;;;;;;8.80;2.57;;;17.70;99.90;;;;;;5086058;28;20048;-77
2023/07/11 02:56:15;;;;;;;8.23;2.70;;;17.80;99.90;;;;;;5087957;28;20051;-77
2023/07/11 02:58:41;;;;;;;9.70;2.60;;;17.80;99.90;;;;;;5088602;28;20071;-77
2023/07/11 03:01:07;;;;;;;8.18;2.97;;;17.80;99.90;;;;;;5102061;28;20087;-77
2023/07/11 03:03:33;;;;;;;10.38;2.65;;;17.70;99.90;;;;;;5097130;28;20042;-77
2023/07/11 03:05:58;;;;;;;7.28;2.90;;;17.70;99.90;;;;;;5097460;28;20058;-77
2023/07/11 03:08:25;;;;;;;8.85;2.70;;;17.70;99.90;;;;;;5092621;28;20040;-77
2023/07/11 03:10:50;;;;;;;8.13;2.25;;;17.70;99.90;;;;;;5088297;28;20041;-77
2023/07/11 03:13:18;;;;;;;8.18;2.55;;;17.70;99.90;;;;;;5100927;27;20055;-77
2023/07/11 03:15:43;;;;;;;7.83;2.80;;;17.70;99.90;;;;;;5081256;28;20044;-76
2023/07/11 03:18:10;;;;;;;8.65;3.08;;;17.70;99.90;;;;;;5084273;28;20614;-77
2023/07/11 03:20:40;;;;;;;8.35;2.83;;;17.70;99.90;;;;;;5076709;28;20581;-77
2023/07/11 03:23:07;;;;;;;9.25;2.88;;;17.70;99.90;;;;;;5092945;28;20044;-77
2023/07/11 03:25:33;;;;;;;7.25;2.72;;;17.70;99.90;;;;;;5094100;28;20490;-76
2023/07/11 03:27:59;;;;;;;9.95;3.33;;;17.70;99.90;;;;;;5091864;28;20032;-77
2023/07/11 03:30:25;;;;;;;8.48;2.90;;;17.70;99.90;;;;;;5087823;28;20048;-76
2023/07/11 03:32:51;;;;;;;9.15;3.72;;;17.70;99.90;;;;;;5085434;28;20036;-76
2023/07/11 03:35:16;;;;;;;9.55;3.55;;;17.60;99.90;;;;;;5096214;28;20466;-76
2023/07/11 03:37:42;;;;;;;8.40;3.25;;;17.60;99.90;;;;;;5096628;28;20043;-77
2023/07/11 03:40:08;;;;;;;8.63;3.22;;;17.60;99.90;;;;;;5089488;28;20084;-77
2023/07/11 03:42:34;;;;;;;7.70;3.15;;;17.60;99.90;;;;;;5092158;28;20500;-77
2023/07/11 03:44:59;;;;;;;9.55;3.08;;;17.60;99.90;;;;;;5085054;28;20047;-77
2023/07/11 03:47:25;;;;;;;13.35;3.30;;;17.60;99.90;;;;;;5084408;28;20099;-77
2023/07/11 03:49:51;;;;;;;6.93;2.67;;;17.60;99.90;;;;;;5087725;28;20039;-77
2023/07/11 03:52:16;;;;;;;8.60;3.70;;;17.70;99.90;;;;;;5078762;28;20133;-77
2023/07/11 03:54:42;;;;;;;9.95;3.17;;;17.60;99.90;;;;;;5095740;28;20138;-78
2023/07/11 03:57:08;;;;;;;7.35;3.20;;;17.60;99.90;;;;;;5086305;28;20043;-77
2023/07/11 03:59:33;;;;;;;8.60;3.00;;;17.60;99.90;;;;;;5088793;28;20545;-77
2023/07/11 04:01:59;;;;;;;9.45;3.35;;;17.70;99.90;;;;;;5084288;28;20154;-77
2023/07/11 04:04:25;;;;;;;9.82;2.78;;;17.70;99.90;;;;;;5091580;28;20042;-77
2023/07/11 04:06:50;;;;;;;8.52;3.03;;;17.70;99.90;;;;;;5091733;28;20393;-77
2023/07/11 04:09:16;;;;;;;5.53;2.53;;;17.70;99.90;;;;;;5091005;28;20047;-77
2023/07/11 04:11:41;;;;;;;10.38;3.30;;;17.70;99.90;;;;;;5090968;28;20040;-77
2023/07/11 04:14:10;;;;;;;10.48;2.95;;;17.70;99.90;;;;;;5098733;28;20044;-77
2023/07/11 04:16:35;;;;;;;5.97;2.88;;;17.70;99.90;;;;;;5096282;28;20050;-77
2023/07/11 04:19:01;;;;;;;10.07;2.80;;;17.70;99.90;;;;;;5085814;28;20033;-78
2023/07/11 04:21:27;;;;;;;9.50;2.78;;;17.70;99.90;;;;;;5083557;28;20090;-76
2023/07/11 04:23:53;;;;;;;10.15;3.15;;;17.80;99.90;;;;;;5085296;28;20116;-77
2023/07/11 04:26:18;;;;;;;10.43;3.20;;;17.80;99.90;;;;;;5088453;28;20052;-77
2023/07/11 04:28:44;;;;;;;9.02;3.55;;;17.80;99.90;;;;;;5093152;28;20040;-77
2023/07/11 04:31:10;;;;;;;7.43;3.05;;;17.80;99.90;;;;;;5096229;28;20032;-77
2023/07/11 04:33:35;;;;;;;10.60;3.28;;;17.80;99.90;;;;;;5093241;28;20109;-77
2023/07/11 04:36:10;;;;;;;10.90;3.45;;;17.80;99.90;;;;;;5086342;28;20136;-77
2023/07/11 04:38:36;;;;;;;10.90;3.33;;;17.90;99.90;;;;;;5073994;28;20119;-78
2023/07/11 04:41:03;;;;;;;9.57;3.42;;;17.90;99.90;;;;;;5076940;28;20123;-78
2023/07/11 04:43:29;;;;;;;9.18;3.40;;;17.90;99.90;;;;;;5087614;28;20610;-77
2023/07/11 04:45:58;;;;;;;13.15;4.07;;;17.90;99.90;;;;;;5084343;28;20170;-77
2023/07/11 04:48:24;;;;;;;8.57;3.80;;;18.00;99.90;;;;;;5095253;28;20040;-77
2023/07/11 04:51:02;;;;;;;7.55;3.38;;;18.00;99.90;;;;;;5081624;28;20065;-77
2023/07/11 04:53:29;;;;;;;8.30;3.40;;;18.00;99.90;;;;;;5081901;28;20081;-77
2023/07/11 04:56:06;;;;;;;14.18;3.92;;;18.00;99.90;;;;;;5094916;28;20046;-76
2023/07/11 04:58:33;;;;;;;8.93;3.83;;;18.00;99.90;;;;;;5083573;28;20047;-76
2023/07/11 05:01:08;;;;;;;7.13;3.53;;;18.00;99.90;;;;;;5090593;28;20028;-77
2023/07/11 05:03:34;;;;;;;12.18;3.85;;;18.00;99.90;;;;;;5086466;28;20040;-77
2023/07/11 05:06:02;;;;;;;11.95;3.50;;;18.00;99.90;;;;;;5090437;28;20127;-77
2023/07/11 05:08:28;;;;;;;9.45;3.53;;;18.00;99.90;;;;;;5089421;28;20465;-76
2023/07/11 05:11:07;;;;;;;14.13;3.88;;;18.00;99.90;;;;;;5083236;28;20064;-76
2023/07/11 05:13:34;;;;;;;11.65;4.68;;;18.00;99.90;;;;;;5086273;28;20044;-78
2023/07/11 05:16:10;;;;;;;11.38;4.10;;;18.10;99.90;;;;;;5084346;28;20044;-77
2023/07/11 05:18:40;;;;;;;8.93;3.92;;;18.20;99.90;;;;;;5091312;28;20046;-76
2023/07/11 05:21:07;;;;;;;11.20;4.05;;;18.30;99.90;;;;;;5086643;28;20097;-77
2023/07/11 05:23:32;;;;;;;9.95;3.83;;;18.40;99.90;;;;;;5091522;28;20063;-77
2023/07/11 05:25:58;;;;;;;8.35;3.92;;;18.50;99.90;;;;;;5085502;28;20485;-76
2023/07/11 05:28:27;;;;;;;10.40;3.80;;;18.60;99.90;;;;;;5083888;28;20032;-76
2023/07/11 05:30:55;;;;;;;9.98;4.25;;;18.80;99.90;;;;;;5081466;28;20131;-76
2023/07/11 05:33:21;;;;;;;9.48;3.42;;;19.00;99.90;;;;;;5092225;28;20052;-77
2023/07/11 05:36:05;;;;;;;8.13;3.72;;;19.10;99.90;;;;;;5092611;28;20047;-75
2023/07/11 05:38:32;;;;;;;12.15;3.88;;;19.20;99.90;;;;;;5078573;28;20072;-76
2023/07/11 05:40:57;;;;;;;13.40;4.32;;;19.30;99.90;;;;;;5084971;28;20043;-78
2023/07/11 05:43:23;;;;;;;13.55;3.92;;;19.40;99.90;;;;;;5090726;28;20482;-78
2023/07/11 05:45:49;;;;;;;11.45;4.03;;;19.40;99.90;;;;;;5089366;28;20398;-78
2023/07/11 05:48:14;;;;;;;10.80;4.07;;;19.50;99.90;;;;;;5092352;28;20043;-77
2023/07/11 05:50:40;;;;;;;14.00;3.97;;;19.60;99.90;;;;;;5093870;28;20028;-78
2023/07/11 05:53:06;;;;;;;11.45;4.18;;;19.70;99.90;;;;;;5095917;28;20550;-78
2023/07/11 05:55:35;;;;;;;13.45;4.07;;;19.90;99.90;;;;;;5091525;28;20074;-78
2023/07/11 05:58:02;;;;;;;9.18;3.50;;;20.00;99.90;;;;;;5095526;28;20097;-77
2023/07/11 06:00:28;;;;;;;9.20;3.50;;;20.10;99.90;;;;;;5094442;28;20036;-79
2023/07/11 06:02:53;;;;;;;10.02;4.13;;;20.10;99.90;;;;;;5102034;28;20079;-78
2023/07/11 06:05:19;;;;;;;8.57;3.38;;;20.10;99.90;;;;;;5082060;28;20481;-77
2023/07/11 06:07:45;;;;;;;9.45;4.10;;;20.00;99.90;;;;;;5099666;28;20055;-77
2023/07/11 06:10:11;;;;;;;6.55;3.80;;;20.00;99.90;;;;;;5095364;28;20119;-78
2023/07/11 06:12:36;;;;;;;8.68;3.65;;;20.00;99.90;;;;;;5095238;28;20402;-78
2023/07/11 06:15:02;;;;;;;10.82;3.70;;;20.00;99.90;;;;;;5099083;28;20390;-78
2023/07/11 06:17:28;;;;;;;10.23;3.97;;;20.10;99.90;;;;;;5088018;28;20443;-78
2023/07/11 06:19:53;;;;;;;8.90;3.95;;;20.10;99.90;;;;;;5084619;28;20051;-78
2023/07/11 06:22:19;;;;;;;10.65;3.88;;;20.00;99.90;;;;;;5094085;28;20064;-79
2023/07/11 06:24:46;;;;;;;12.13;4.50;;;20.10;99.90;;;;;;5079897;28;20082;-78
2023/07/11 06:27:13;;;;;;;8.10;3.63;;;20.20;99.90;;;;;;5095501;28;20036;-78
2023/07/11 06:29:39;;;;;;;10.80;4.07;;;20.40;99.90;;;;;;5095510;28;20066;-77
2023/07/11 06:32:06;;;;;;;12.73;3.75;;;20.60;99.90;;;;;;5096316;28;20485;-78
2023/07/11 06:34:32;;;;;;;9.82;4.22;;;20.80;99.90;;;;;;5094028;28;20494;-78
2023/07/11 06:36:57;;;;;;;11.23;3.90;;;20.90;99.90;;;;;;5100186;28;20058;-78
2023/07/11 06:39:25;;;;;;;7.88;3.78;;;21.20;99.90;;;;;;5093074;28;20040;-79
2023/07/11 06:41:50;;;;;;;8.77;3.95;;;21.30;99.90;;;;;;5093776;28;20056;-77
2023/07/11 06:44:16;;;;;;;10.55;4.13;;;21.40;99.90;;;;;;5096146;28;20044;-78
2023/07/11 06:46:44;;;;;;;16.08;3.88;;;21.50;99.90;;;;;;5083961;28;20048;-78
2023/07/11 06:49:10;;;;;;;14.82;4.15;;;21.70;99.90;;;;;;5110676;28;20036;-79
2023/07/11 06:51:36;;;;;;;8.82;3.70;;;21.70;99.90;;;;;;5098795;28;20047;-78
2023/07/11 06:54:02;;;;;;;7.63;3.83;;;21.80;99.90;;;;;;5105757;28;20111;-79
2023/07/11 06:56:28;;;;;;;10.82;3.95;;;21.80;99.90;;;;;;5096653;28;20040;-79
2023/07/11 06:58:53;;;;;;;10.30;4.13;;;21.80;99.90;;;;;;5090330;28;20056;-78
2023/07/11 07:01:22;;;;;;;9.90;3.90;;;22.00;99.90;;;;;;5094143;28;20119;-79
2023/07/11 07:03:48;;;;;;;8.68;3.42;;;22.10;99.90;;;;;;5096230;28;20054;-79
2023/07/11 07:06:14;;;;;;;7.78;3.83;;;22.30;99.90;;;;;;5097455;28;20040;-79
2023/07/11 07:08:40;;;;;;;14.07;4.00;;;22.40;99.90;;;;;;5094971;28;20555;-79
2023/07/11 07:11:06;;;;;;;10.80;4.35;;;22.40;99.90;;;;;;5095640;28;20036;-79
2023/07/11 07:13:32;;;;;;;14.77;3.53;;;22.50;99.90;;;;;;5096567;28;20048;-79
2023/07/11 07:16:00;;;;;;;9.55;3.75;;;22.50;99.90;;;;;;5095343;28;20478;-78
2023/07/11 07:18:30;;;;;;;15.20;3.72;;;22.50;99.90;;;;;;5090172;28;20068;-79
2023/07/11 07:20:56;;;;;;;12.75;3.78;;;22.50;99.90;;;;;;5087441;28;20051;-78
2023/07/11 07:23:22;;;;;;;6.85;3.88;;;22.70;99.90;;;;;;5101904;28;20036;-78
2023/07/11 07:25:54;;;;;;;5.68;3.40;;;22.80;99.90;;;;;;5090938;28;20036;-78
2023/07/11 07:28:20;;;;;;;10.38;3.78;;;22.90;99.90;;;;;;5108934;28;20036;-79
2023/07/11 07:30:47;;;;;;;8.52;3.38;;;23.10;99.90;;;;;;5099673;28;20047;-78
2023/07/11 07:33:14;;;;;;;10.43;3.50;;;23.30;99.90;;;;;;5104682;28;20116;-77
2023/07/11 07:35:41;;;;;;;8.52;3.42;;;23.30;99.90;;;;;;5089239;28;20131;-78
2023/07/11 07:38:07;;;;;;;8.32;3.47;;;23.40;99.90;;;;;;5088514;28;20036;-79
2023/07/11 07:40:33;;;;;;;7.18;3.38;;;23.40;99.90;;;;;;5118719;28;20043;-78
2023/07/11 07:42:58;;;;;;;7.07;3.30;;;23.40;99.90;;;;;;5104453;28;20431;-79
2023/07/11 07:45:24;;;;;;;8.38;3.10;;;23.40;99.90;;;;;;5088585;28;20056;-79
2023/07/11 07:47:50;;;;;;;11.32;3.55;;;23.50;99.90;;;;;;5100458;28;20040;-79
2023/07/11 07:50:15;;;;;;;8.07;3.30;;;23.50;99.90;;;;;;5098552;28;20092;-78
2023/07/11 07:52:41;;;;;;;11.07;3.88;;;23.40;99.90;;;;;;5105406;28;20070;-79
2023/07/11 07:55:07;;;;;;;9.30;3.22;;;23.40;99.90;;;;;;5099002;28;20064;-79
2023/07/11 07:57:35;;;;;;;9.40;3.30;;;23.40;99.90;;;;;;5095139;28;20036;-79
2023/07/11 08:00:03;;;;;;;;;;;23.40;99.90;;;;;;5104105;28;20055;-79
2023/07/11 08:02:32;;;;;;;9.50;3.53;;;23.50;99.90;;;;;;5115210;27;19965;-78
2023/07/11 08:04:58;;;;;;;7.85;3.70;;;23.50;99.90;;;;;;5096424;28;20043;-77
2023/07/11 08:07:27;;;;;;;8.75;3.70;;;23.50;99.90;;;;;;5095721;28;20028;-78
2023/07/11 08:09:55;;;;;;;9.50;3.90;;;23.60;99.90;;;;;;5091309;28;20055;-78
2023/07/11 08:12:21;;;;;;;;;;;23.70;99.90;;;;;;5068286;28;20044;-78
2023/07/11 08:14:46;;;;;;;8.95;3.15;;;23.80;99.90;;;;;;5090104;28;19981;-78
2023/07/11 08:17:12;;;;;;;9.23;3.25;;;24.00;99.90;;;;;;5084029;28;20033;-78
2023/07/11 08:19:38;;;;;;;9.68;3.60;;;24.10;99.90;;;;;;5083689;28;20489;-77
2023/07/11 08:22:05;;;;;;;7.88;3.55;;;24.20;99.90;;;;;;5097925;28;20047;-78
2023/07/11 08:24:31;;;;;;;7.25;3.20;;;24.30;99.90;;;;;;5091693;28;20040;-78
2023/07/11 08:26:56;;;;;;;11.23;3.45;;;24.30;99.90;;;;;;5083502;28;20050;-79
2023/07/11 08:29:22;;;;;;;13.65;3.90;;;24.30;99.90;;;;;;5089940;28;20064;-78
2023/07/11 08:31:48;;;;;;;12.23;3.22;;;24.30;99.90;;;;;;5082933;28;20098;-79
2023/07/11 08:34:14;;;;;;;6.25;2.80;;;24.40;99.90;;;;;;5085916;28;20048;-77
2023/07/11 08:36:41;;;;;;;8.50;3.10;;;24.40;99.90;;;;;;5087715;28;20040;-79
2023/07/11 08:39:07;;;;;;;10.18;3.50;;;24.40;99.90;;;;;;5088757;28;20043;-78
2023/07/11 08:41:32;;;;;;;10.35;2.97;;;24.50;99.90;;;;;;5097669;28;20047;-78
2023/07/11 08:44:04;;;;;;;8.60;3.05;;;24.50;99.90;;;;;;5097890;28;20039;-78
2023/07/11 08:46:37;;;;;;;8.00;2.97;;;24.40;99.90;;;;;;5096329;28;20036;-79
2023/07/11 08:49:06;;;;;;;8.82;3.50;;;24.40;99.90;;;;;;5096691;28;20044;-80
2023/07/11 08:51:37;;;;;;;8.45;3.50;;;24.40;99.90;;;;;;5079461;28;20474;-77
2023/07/11 08:54:14;;;;;;;10.05;3.33;;;24.40;99.90;;;;;;5078266;28;20043;-79
2023/07/11 08:56:43;;;;;;;11.67;3.27;;;24.60;99.70;;;;;;5085846;28;20433;-78
2023/07/11 08:59:43;;;;;;;8.57;3.45;;;24.80;99.50;;;;;;5081693;28;20295;-77
2023/07/11 09:02:08;;;;;;;;;;;25.10;99.00;;;;;;5081320;28;20051;-79
2023/07/11 09:04:39;;;;;;;8.70;3.35;;;25.40;98.00;;;;;;5089592;28;19924;-78
2023/07/11 09:07:25;;;;;;;6.85;3.17;;;25.50;98.80;;;;;;5095807;28;20070;-78
2023/07/11 09:09:51;;;;;;;6.18;2.67;;;25.60;98.00;;;;;;5105880;28;20055;-78
2023/07/11 09:12:48;;;;;;;6.80;3.25;;;25.50;98.30;;;;;;5077385;28;20120;-78
2023/07/11 09:15:43;;;;;;;7.25;2.83;;;25.60;98.10;;;;;;5077907;28;20051;-79
2023/07/11 09:18:28;;;;;;;10.10;2.72;;;25.90;97.60;;;;;;5078845;28;20105;-79
2023/07/11 09:21:05;;;;;;;8.20;2.90;;;26.20;98.10;;;;;;5105024;28;20044;-79
2023/07/11 09:24:12;;;;;;;10.18;2.72;;;26.30;97.00;;;;;;5088026;28;20104;-79
2023/07/11 09:26:47;;;;;;;12.20;3.40;;;26.40;95.50;;;;;;5045926;28;20092;-79
2023/07/11 09:29:14;;;;;;;8.80;2.80;;;26.40;95.70;;;;;;5081838;28;20052;-78
2023/07/11 09:31:43;;;;;;;10.55;2.70;;;26.40;95.40;;;;;;5100997;28;20458;-79
2023/07/11 09:34:23;;;;;;;8.15;3.22;;;26.50;95.40;;;;;;5114448;28;20081;-80
2023/07/11 09:36:49;;;;;;;8.60;2.60;;;26.60;94.80;;;;;;5091900;28;20115;-79
2023/07/11 09:39:35;;;;;;;11.80;3.25;;;26.80;95.10;;;;;;5065544;28;20546;-79
2023/07/11 09:42:04;;;;;;;7.75;2.75;;;27.10;95.60;;;;;;5104501;28;20055;-80
2023/07/11 09:44:30;;;;;;;8.05;2.67;;;27.30;95.60;;;;;;5105346;28;20556;-79
2023/07/11 09:46:56;;;;;;;6.25;2.58;;;27.60;95.40;;;;;;5106524;28;20105;-78
2023/07/11 09:49:31;;;;;;;6.87;2.60;;;27.80;95.20;;;;;;5094231;28;20029;-79
2023/07/11 09:52:03;;;;;;;7.55;2.40;;;28.00;94.60;;;;;;5081283;28;20305;-78
2023/07/11 09:54:45;;;;;;;6.32;2.53;;;28.10;94.00;;;;;;5079454;28;20049;-78
2023/07/11 09:57:12;;;;;;;7.60;2.63;;;28.20;92.20;;;;;;5098614;28;20078;-78
2023/07/11 09:59:52;;;;;;;5.90;2.13;;;28.20;92.30;;;;;;5101517;28;20040;-77
2023/07/11 10:02:17;;;;;;;6.15;2.38;;;28.30;92.50;;;;;;5098518;28;20386;-78
2023/07/11 10:04:45;;;;;;;6.03;2.60;;;28.30;91.70;;;;;;5098386;28;20071;-77
2023/07/11 10:07:14;;;;;;;6.90;2.88;;;28.40;92.00;;;;;;5080767;28;20057;-78
2023/07/11 10:09:48;;;;;;;6.68;2.45;;;28.50;92.20;;;;;;5078328;28;20036;-79
2023/07/11 10:12:23;;;;;;;8.57;2.20;;;28.60;90.90;;;;;;5077677;28;20047;-78
2023/07/11 10:15:01;;;;;;;8.38;2.63;;;28.70;91.40;;;;;;5077473;28;20048;-78
2023/07/11 10:17:35;;;;;;;10.88;2.30;;;28.70;89.10;;;;;;5078115;28;20051;-77
2023/07/11 10:20:04;;;;;;;6.45;2.15;;;28.50;90.00;;;;;;5080193;28;20085;-78
2023/07/11 10:22:31;;;;;;;5.68;2.30;;;28.30;90.60;;;;;;5094077;28;20032;-78
2023/07/11 10:25:27;;;;;;;13.30;3.13;;;28.20;91.00;;;;;;5094555;28;20036;-79
2023/07/11 10:27:59;;;;;;;7.32;2.45;;;28.10;90.20;;;;;;5077678;28;20056;-79
2023/07/11 10:30:29;;;;;;;9.65;2.42;;;28.00;91.00;;;;;;5091672;28;20197;-78
2023/07/11 10:33:04;;;;;;;6.85;2.35;;;28.00;91.10;;;;;;5080842;28;20047;-79
2023/07/11 10:35:31;;;;;;;7.35;2.30;;;28.10;91.20;;;;;;5080523;28;20052;-79
2023/07/11 10:38:13;;;;;;;5.47;2.35;;;28.20;91.70;;;;;;5096009;28;20549;-78
2023/07/11 10:40:43;;;;;;;6.38;2.53;;;28.30;91.70;;;;;;5096933;28;20044;-78
2023/07/11 10:43:35;;;;;;;7.15;2.25;;;28.40;91.20;;;;;;5095129;28;20109;-77
2023/07/11 10:46:05;;;;;;;9.02;2.70;;;28.40;90.70;;;;;;5096552;28;20044;-78
2023/07/11 10:48:34;;;;;;;6.50;2.60;;;28.50;90.50;;;;;;5082044;28;20079;-77
2023/07/11 10:51:23;;;;;;;8.70;2.60;;;28.60;91.00;;;;;;5085396;28;20098;-77
2023/07/11 10:54:30;;;;;;;11.80;2.50;;;28.70;90.20;;;;;;5092039;28;20044;-77
2023/07/11 10:57:01;;;;;;;6.22;2.75;;;28.80;90.60;;;;;;5061302;28;20048;-78
2023/07/11 10:59:31;;;;;;;5.60;2.67;;;28.90;90.60;;;;;;5076172;28;20045;-78
2023/07/11 11:02:20;;;;;;;7.57;2.78;;;28.90;90.20;;;;;;5083739;28;20051;-78
2023/07/11 11:05:02;;;;;;;7.35;2.78;;;28.90;90.30;;;;;;5084507;28;20113;-78
2023/07/11 11:07:47;;;;;;;6.93;2.67;;;28.90;89.80;;;;;;5077256;28;20485;-79
2023/07/11 11:10:31;;;;;;;7.30;2.47;;;29.00;89.60;;;;;;5079112;28;20041;-79
2023/07/11 11:13:06;;;;;;;11.00;3.30;;;29.10;89.70;;;;;;5078974;28;20068;-79
2023/07/11 11:15:56;;;;;;;11.32;2.63;;;29.20;89.60;;;;;;5086274;28;20181;-79
2023/07/11 11:18:30;;;;;;;8.18;2.58;;;29.10;88.00;;;;;;5111294;28;20047;-77
2023/07/11 11:21:27;;;;;;;11.77;2.85;;;29.10;88.60;;;;;;5096147;28;20048;-79
2023/07/11 11:24:05;;;;;;;7.43;2.50;;;29.10;89.70;;;;;;5104564;28;20046;-78
2023/07/11 11:27:05;;;;;;;7.18;2.55;;;29.30;90.20;;;;;;5102643;28;20039;-79
2023/07/11 11:29:42;;;;;;;8.60;2.47;;;29.40;88.70;;;;;;5101430;28;20032;-79
2023/07/11 11:32:31;;;;;;;10.30;2.80;;;29.60;90.00;;;;;;5110425;28;20048;-79
2023/07/11 11:35:21;;;;;;;7.82;2.55;;;29.80;90.20;;;;;;5087908;28;20053;-78
2023/07/11 11:38:08;;;;;;;8.73;2.67;;;30.10;89.20;;;;;;5085662;28;20040;-79
2023/07/11 11:40:39;;;;;;;10.13;2.70;;;30.40;89.50;;;;;;5100101;28;20233;-79
2023/07/11 11:43:10;;;;;;;7.30;2.40;;;30.50;89.40;;;;;;5087987;28;20049;-79
2023/07/11 11:45:37;;;;;;;7.18;2.60;;;30.70;88.80;;;;;;5090586;28;20093;-81
2023/07/11 11:48:04;;;;;;;8.80;2.72;;;31.00;88.50;;;;;;5104897;28;20044;-80
2023/07/11 11:50:40;;;;;;;9.27;3.10;;;31.00;88.00;;;;;;5100130;28;20040;-79
2023/07/11 11:53:33;;;;;;;8.38;2.72;;;31.00;86.90;;;;;;5103237;28;20048;-78
2023/07/11 11:56:03;;;;;;;8.40;2.97;;;30.60;83.00;;;;;;5085034;28;20390;-78
2023/07/11 11:58:32;;;;;;;8.20;2.75;;;30.40;85.10;;;;;;5080610;28;20049;-78
2023/07/11 12:00:58;;;;;;;6.72;2.70;;;30.20;85.10;;;;;;5078470;28;20486;-78
2023/07/11 12:03:42;;;;;;;6.03;2.58;;;30.30;86.60;;;;;;5065773;28;20120;-77
2023/07/11 12:06:35;;;;;;;6.55;2.22;;;30.40;85.70;;;;;;5087999;28;20044;-79
2023/07/11 12:09:16;;;;;;;6.78;2.88;;;30.60;86.50;;;;;;5058256;28;20091;-79
2023/07/11 12:11:45;;;;;;;11.40;2.55;;;30.70;84.40;;;;;;5077173;28;20469;-79
2023/07/11 12:14:28;;;;;;;9.25;2.67;;;30.70;85.80;;;;;;5085781;28;20075;-80
2023/07/11 12:16:54;;;;;;;8.77;3.08;;;30.90;86.10;;;;;;5082450;28;20040;-79
2023/07/11 12:19:55;;;;;;;6.63;2.75;;;31.10;85.00;;;;;;5085886;28;20112;-79
2023/07/11 12:22:23;;;;;;;9.95;3.20;;;31.20;86.10;;;;;;5076036;28;20032;-79
2023/07/11 12:25:02;;;;;;;5.63;2.78;;;31.30;86.00;;;;;;5092218;28;20433;-79
2023/07/11 12:27:28;;;;;;;11.23;2.65;;;31.30;85.10;;;;;;5078815;28;20409;-79
2023/07/11 12:29:55;;;;;;;7.28;2.70;;;31.20;83.70;;;;;;5075229;28;20072;-77
2023/07/11 12:32:32;;;;;;;8.48;3.13;;;31.20;82.30;;;;;;5103535;28;20040;-78
2023/07/11 12:35:08;;;;;;;6.28;2.83;;;31.00;82.50;;;;;;5090442;28;20490;-77
2023/07/11 12:37:36;;;;;;;16.50;3.28;;;30.80;82.50;;;;;;5079662;28;20500;-78
2023/07/11 12:40:21;;;;;;;10.60;2.35;;;30.60;82.80;;;;;;5074520;28;20483;-79
2023/07/11 12:43:01;;;;;;;9.98;2.80;;;30.40;83.70;;;;;;5085719;28;20046;-78
2023/07/11 12:45:35;;;;;;;10.00;3.22;;;30.20;83.80;;;;;;5056021;28;20059;-79
2023/07/11 12:48:15;;;;;;;10.55;3.00;;;30.10;83.10;;;;;;5073443;28;20462;-80
2023/07/11 12:50:47;;;;;;;8.30;3.25;;;29.80;84.30;;;;;;5092681;28;20378;-80
2023/07/11 12:53:13;;;;;;;11.02;2.90;;;29.70;86.30;;;;;;5089662;28;20040;-80
2023/07/11 12:55:42;;;;;;;14.13;4.22;;;29.60;87.20;;;;;;5094902;28;20089;-78
2023/07/11 12:58:25;;;;;;;14.90;3.13;;;29.60;87.10;;;;;;5080949;28;20047;-80